createdAt,value
2019-02-17T00:00:54.917Z,12.03
2019-02-17T00:06:57.057Z,10.88
2019-02-17T00:12:59.410Z,9.88
2019-02-17T00:19:01.544Z,13.00
2019-02-17T00:25:03.840Z,12.40
2019-02-17T00:31:06.064Z,11.93
2019-02-17T00:37:08.263Z,10.70
2019-02-17T00:43:10.450Z,12.40
2019-02-17T00:49:14.777Z,11.90
2019-02-17T00:55:16.977Z,12.13
2019-02-17T01:01:19.179Z,13.15
2019-02-17T01:07:21.717Z,10.43
2019-02-17T01:13:23.893Z,12.90
2019-02-17T01:19:26.260Z,11.28
2019-02-17T01:25:28.460Z,10.40
2019-02-17T01:31:30.701Z,12.65
2019-02-17T01:37:32.942Z,11.88
2019-02-17T01:43:35.153Z,15.60
2019-02-17T01:49:37.402Z,13.75
2019-02-17T01:55:40.513Z,13.65
2019-02-17T02:01:42.698Z,14.45
2019-02-17T02:07:44.958Z,12.33
2019-02-17T02:13:47.269Z,12.68
2019-02-17T02:19:49.594Z,12.65
2019-02-17T02:25:51.787Z,15.08
2019-02-17T02:31:54.152Z,14.80
2019-02-17T02:37:56.364Z,12.45
2019-02-17T02:43:58.546Z,14.25
2019-02-17T02:50:00.901Z,12.65
2019-02-17T02:56:03.245Z,14.25
2019-02-17T03:02:07.679Z,13.30
2019-02-17T03:08:09.907Z,17.05
2019-02-17T03:14:12.207Z,13.15
2019-02-17T03:20:14.502Z,15.75
2019-02-17T03:26:16.676Z,14.40
2019-02-17T03:32:18.900Z,14.03
2019-02-17T03:38:21.165Z,13.55
2019-02-17T03:44:23.331Z,12.73
2019-02-17T03:50:25.609Z,14.10
2019-02-17T03:56:27.850Z,11.03
2019-02-17T04:02:30.125Z,12.58
2019-02-17T04:08:34.385Z,12.00
2019-02-17T04:14:36.554Z,14.85
2019-02-17T04:20:38.845Z,14.55
2019-02-17T04:26:41.067Z,12.63
2019-02-17T04:32:43.331Z,18.30
2019-02-17T04:38:45.745Z,16.67
2019-02-17T04:44:47.985Z,13.70
2019-02-17T04:50:50.204Z,13.13
2019-02-17T04:56:52.693Z,14.43
2019-02-17T05:02:55.011Z,15.80
2019-02-17T05:08:57.204Z,14.03
2019-02-17T05:15:01.600Z,13.78
2019-02-17T05:21:03.850Z,14.63
2019-02-17T05:27:06.246Z,16.65
2019-02-17T05:33:08.776Z,16.82
2019-02-17T05:39:10.947Z,17.70
2019-02-17T05:45:13.260Z,13.70
2019-02-17T05:51:15.536Z,13.75
2019-02-17T05:57:17.720Z,15.23
2019-02-17T06:03:20.037Z,18.37
2019-02-17T06:09:22.299Z,16.25
2019-02-17T06:15:24.550Z,16.40
2019-02-17T06:21:27.255Z,15.60
2019-02-17T06:27:29.378Z,15.28
2019-02-17T06:33:31.615Z,17.60
2019-02-17T06:39:33.893Z,16.97
2019-02-17T06:45:36.225Z,16.67
2019-02-17T06:51:38.479Z,14.87
2019-02-17T06:57:42.173Z,14.40
2019-02-17T07:03:45.885Z,15.30
2019-02-17T07:09:48.035Z,17.32
2019-02-17T07:15:53.195Z,15.23
2019-02-17T07:21:55.922Z,16.97
2019-02-17T07:27:58.373Z,18.15
2019-02-17T07:34:00.625Z,16.45
2019-02-17T07:40:03.311Z,14.18
2019-02-17T07:46:05.627Z,12.68
2019-02-17T07:52:08.002Z,10.95
2019-02-17T07:58:10.325Z,17.75
2019-02-17T08:04:14.576Z,54.85
2019-02-17T08:10:16.794Z,46.90
2019-02-17T08:16:18.972Z,17.00
2019-02-17T08:22:21.309Z,15.08
2019-02-17T08:28:25.640Z,12.05
2019-02-17T08:34:27.911Z,11.15
2019-02-17T08:40:30.099Z,10.32
2019-02-17T08:46:32.363Z,10.85
2019-02-17T08:52:34.829Z,9.50
2019-02-17T08:58:37.163Z,10.15
2019-02-17T09:04:39.411Z,10.78
2019-02-17T09:10:41.761Z,9.28
2019-02-17T09:16:43.943Z,11.43
2019-02-17T09:22:46.212Z,14.05
2019-02-17T09:28:50.566Z,37.90
2019-02-17T09:34:53.022Z,23.50
2019-02-17T09:40:55.174Z,29.45
2019-02-17T09:46:57.398Z,31.07
2019-02-17T09:52:59.538Z,34.60
2019-02-17T09:59:01.806Z,34.58
2019-02-17T10:05:04.163Z,38.60
2019-02-17T10:11:06.398Z,37.00
2019-02-17T10:17:08.488Z,37.08
2019-02-17T10:23:10.641Z,35.63
2019-02-17T10:29:12.995Z,36.50
2019-02-17T10:35:15.160Z,38.63
2019-02-17T10:41:17.727Z,38.40
2019-02-17T10:47:19.988Z,35.98
2019-02-17T10:53:22.243Z,31.42
2019-02-17T10:59:24.401Z,36.33
2019-02-17T11:05:26.532Z,32.80
2019-02-17T11:11:28.839Z,33.08
2019-02-17T11:17:31.092Z,30.72
2019-02-17T11:23:33.460Z,30.70
2019-02-17T11:29:37.957Z,30.50
2019-02-17T11:35:40.222Z,31.37
2019-02-17T11:41:42.348Z,33.85
2019-02-17T11:47:44.668Z,27.90
2019-02-17T11:53:46.944Z,32.85
2019-02-17T11:59:49.115Z,31.77
2019-02-17T12:05:51.507Z,23.83
2019-02-17T12:11:53.689Z,23.73
2019-02-17T12:17:55.959Z,22.10
2019-02-17T12:24:12.111Z,21.02
2019-02-17T12:30:14.492Z,18.20
2019-02-17T12:36:18.875Z,18.27
2019-02-17T12:42:21.350Z,15.58
2019-02-17T12:48:23.599Z,16.48
2019-02-17T12:54:29.066Z,12.75
2019-02-17T13:00:29.873Z,11.95
2019-02-17T13:06:32.045Z,11.12
2019-02-17T13:12:34.381Z,9.25
2019-02-17T13:18:36.541Z,9.68
2019-02-17T13:24:38.774Z,9.80
2019-02-17T13:30:40.895Z,9.80
2019-02-17T13:36:43.084Z,8.50
2019-02-17T13:42:47.062Z,9.83
2019-02-17T13:48:49.320Z,11.22
2019-02-17T13:54:51.551Z,10.78
2019-02-17T14:00:53.704Z,10.23
2019-02-17T14:06:55.834Z,10.08
2019-02-17T14:12:58.872Z,10.03
2019-02-17T14:19:01.014Z,9.10
2019-02-17T14:25:03.231Z,8.68
2019-02-17T14:31:05.475Z,7.78
2019-02-17T14:37:07.610Z,8.45
2019-02-17T14:43:11.864Z,8.25
2019-02-17T14:49:14.196Z,9.88
2019-02-17T14:55:16.479Z,8.75
2019-02-17T15:01:18.606Z,8.68
2019-02-17T15:07:21.095Z,9.08
2019-02-17T15:13:24.643Z,8.80
2019-02-17T15:19:27.086Z,8.35
2019-02-17T15:25:29.291Z,7.65
2019-02-17T15:31:31.605Z,7.25
2019-02-17T15:37:33.854Z,6.45
2019-02-17T15:43:36.022Z,7.58
2019-02-17T15:49:39.960Z,7.70
2019-02-17T15:55:42.490Z,7.85
2019-02-17T16:01:44.656Z,8.78
2019-02-17T16:07:47.026Z,29.87
2019-02-17T16:13:49.391Z,74.55
2019-02-17T16:19:51.575Z,38.73
2019-02-17T16:25:53.821Z,28.17
2019-02-17T16:31:56.276Z,53.38
2019-02-17T16:37:58.408Z,27.65
2019-02-17T16:44:07.248Z,24.45
2019-02-17T16:50:13.649Z,38.00
2019-02-17T16:56:16.078Z,31.07
2019-02-17T17:02:18.382Z,18.62
2019-02-17T17:08:20.623Z,21.17
2019-02-17T17:14:24.155Z,14.63
2019-02-17T17:20:26.431Z,14.40
2019-02-17T17:26:28.724Z,14.78
2019-02-17T17:32:31.019Z,14.90
2019-02-17T17:38:35.223Z,15.65
2019-02-17T17:44:37.672Z,14.15
2019-02-17T17:50:42.052Z,20.35
2019-02-17T17:56:44.398Z,19.90
2019-02-17T18:02:46.810Z,18.82
2019-02-17T18:08:49.116Z,28.02
2019-02-17T18:14:52.385Z,26.85
2019-02-17T18:20:55.822Z,25.17
2019-02-17T18:26:58.096Z,29.07
2019-02-17T18:33:00.443Z,28.10
2019-02-17T18:39:03.733Z,25.88
2019-02-17T18:45:07.601Z,42.00
2019-02-17T18:51:13.017Z,33.02
2019-02-17T18:57:15.283Z,28.15
2019-02-17T19:03:20.343Z,48.70
2019-02-17T19:09:22.797Z,52.00
2019-02-17T19:15:25.240Z,58.02
2019-02-17T19:21:29.492Z,60.98
2019-02-17T19:27:31.754Z,54.30
2019-02-17T19:33:34.129Z,36.40
2019-02-17T19:39:36.488Z,28.92
2019-02-17T19:45:38.759Z,28.07
2019-02-17T19:51:43.236Z,29.00
2019-02-17T19:57:45.469Z,25.95
2019-02-17T20:03:52.200Z,25.17
2019-02-17T20:09:55.554Z,30.68
2019-02-17T20:15:57.744Z,23.87
2019-02-17T20:22:00.076Z,24.95
2019-02-17T20:28:02.648Z,24.37
2019-02-17T20:34:04.919Z,24.90
2019-02-17T20:40:08.302Z,24.52
2019-02-17T20:46:10.569Z,25.72
2019-02-17T20:52:14.598Z,23.00
2019-02-17T20:58:16.982Z,24.57
2019-02-17T21:04:19.367Z,22.48
2019-02-17T21:10:21.731Z,21.00
2019-02-17T21:16:25.053Z,20.62
2019-02-17T21:22:27.388Z,20.30
2019-02-17T21:28:29.819Z,19.42
2019-02-17T21:34:32.059Z,22.10
2019-02-17T21:40:34.217Z,20.80
2019-02-17T21:46:36.502Z,18.42
2019-02-17T21:52:42.111Z,19.85
2019-02-17T21:58:45.724Z,19.65
2019-02-17T22:04:47.987Z,20.10
2019-02-17T22:10:50.169Z,18.20
2019-02-17T22:16:52.282Z,16.70
2019-02-17T22:22:54.543Z,16.95
2019-02-17T22:28:56.824Z,17.67
2019-02-17T22:34:59.028Z,20.23
2019-02-17T22:41:01.259Z,19.23
2019-02-17T22:47:03.390Z,17.32
2019-02-17T22:53:05.743Z,15.48
2019-02-17T22:59:10.004Z,15.90
2019-02-17T23:05:12.580Z,16.32
2019-02-17T23:11:14.735Z,14.85
2019-02-17T23:17:16.892Z,17.87
2019-02-17T23:23:19.025Z,15.80
2019-02-17T23:29:21.218Z,14.87
2019-02-17T23:35:23.348Z,15.18
2019-02-17T23:41:25.671Z,14.58
2019-02-17T23:47:27.842Z,15.10
2019-02-17T23:53:30.046Z,16.48
2019-02-17T23:59:32.291Z,15.38
